Time;durP1;ratioP1;P1;durP2;ratioP2;P2;SDS_P1;SDS_P2;PMS_P1;PMS_P2;Temp;Humidity;BMP_temperature;BMP_pressure;BME280_temperature;BME280_humidity;BME280_pressure;Samples;Min_cycle;Max_cycle;Signal;HPM_P1;HPM_P2
2022/04/23 00:01:55;;;;;;;;;;;;;;;10.67;60.84;95070.53;5116290;28;19964;-72
2022/04/23 00:04:21;;;;;;;;;;;;;;;10.64;60.87;95063.16;5115161;28;19976;-73
2022/04/23 00:06:48;;;;;;;;;;;;;;;10.62;61.05;95060.00;5115512;28;20329;-74
2022/04/23 00:09:13;;;;;;;;;;;;;;;10.61;62.92;95068.91;5098119;28;19963;-73
2022/04/23 00:11:39;;;;;;;;;;;;;;;10.57;61.34;95058.94;5115647;28;20380;-72
2022/04/23 00:14:07;;;;;;;;;;;;;;;10.55;61.87;95061.00;5115459;28;19965;-72
2022/04/23 00:16:33;;;;;;;;;;;;;;;10.53;61.33;95059.69;5115755;28;19959;-73
2022/04/23 00:18:59;;;;;;;;;;;;;;;10.50;62.26;95055.75;5115684;28;20428;-73
2022/04/23 00:21:25;;;;;;;;;;;;;;;10.45;61.85;95057.53;5115646;28;20044;-73
2022/04/23 00:23:51;;;;;;;;;;;;;;;10.39;63.72;95058.53;5097090;28;19968;-72
2022/04/23 00:26:17;;;;;;;;;;;;;;;10.34;62.42;95051.41;5115439;28;19959;-72
2022/04/23 00:28:43;;;;;;;;;;;;;;;10.33;62.50;95049.81;5115099;28;19996;-73
2022/04/23 00:31:18;;;;;;;;;;;;;;;10.28;62.51;95042.69;5115480;28;20353;-72
2022/04/23 00:33:43;;;;;;;;;;;;;;;10.23;62.31;95045.28;5115247;28;19954;-73
2022/04/23 00:36:10;;;;;;;;;;;;;;;10.21;63.26;95049.19;5114985;28;20712;-73
2022/04/23 00:38:38;;;;;;;;;;;;;;;10.22;63.54;95048.94;5115757;28;19947;-72
2022/04/23 00:41:05;;;;;;;;;;;;;;;10.21;63.57;95047.34;5096723;28;20323;-73
2022/04/23 00:43:33;;;;;;;;;;;;;;;10.22;63.36;95054.16;5114847;28;19968;-75
2022/04/23 00:46:00;;;;;;;;;;;;;;;10.19;63.47;95051.28;5114490;28;19959;-76
2022/04/23 00:48:26;;;;;;;;;;;;;;;10.19;63.16;95054.69;5115585;28;19946;-74
2022/04/23 00:50:58;;;;;;;;;;;;;;;10.21;63.19;95047.34;5115347;28;20306;-73
2022/04/23 00:53:24;;;;;;;;;;;;;;;10.21;63.39;95047.34;5115844;28;19953;-74
2022/04/23 00:55:54;;;;;;;;;;;;;;;10.22;62.78;95048.13;5115104;28;19966;-74
2022/04/23 00:58:20;;;;;;;;;;;;;;;10.21;63.77;95044.75;5114833;28;19956;-74
2022/04/23 01:00:47;;;;;;;;;;;;;;;10.20;63.43;95052.84;5115209;28;19952;-74
2022/04/23 01:03:13;;;;;;;;;;;;;;;10.19;63.26;95043.41;5114985;28;20416;-74
2022/04/23 01:05:44;;;;;;;;;;;;;;;10.17;63.67;95043.66;5114677;28;20341;-74
2022/04/23 01:08:12;;;;;;;;;;;;;;;10.15;63.40;95040.50;5114668;28;19956;-74
2022/04/23 01:10:39;;;;;;;;;;;;;;;10.12;63.87;95047.03;5114619;28;19953;-74
2022/04/23 01:13:06;;;;;;;;;;;;;;;10.05;63.62;95032.53;5114586;28;20442;-74
2022/04/23 01:15:33;;;;;;;;;;;;;;;9.96;64.69;95040.06;5113614;28;20371;-74
2022/04/23 01:17:59;;;;;;;;;;;;;;;9.87;63.11;95029.25;5114233;28;19976;-74
2022/04/23 01:20:25;;;;;;;;;;;;;;;9.81;63.20;95032.88;5114398;28;19956;-74
2022/04/23 01:22:51;;;;;;;;;;;;;;;9.77;64.86;95031.00;5113577;28;20400;-74
2022/04/23 01:25:17;;;;;;;;;;;;;;;9.73;64.29;95021.00;5113955;28;20015;-74
2022/04/23 01:27:45;;;;;;;;;;;;;;;9.69;63.42;95029.59;5114247;28;19962;-74
2022/04/23 01:30:12;;;;;;;;;;;;;;;9.61;63.50;95012.50;5114339;28;19958;-74
2022/04/23 01:32:38;;;;;;;;;;;;;;;9.56;65.63;95030.78;5113738;28;19975;-74
2022/04/23 01:35:04;;;;;;;;;;;;;;;9.52;65.35;95021.84;5113982;28;20318;-74
2022/04/23 01:37:30;;;;;;;;;;;;;;;9.48;64.12;95018.13;5114023;28;19960;-74
2022/04/23 01:39:56;;;;;;;;;;;;;;;9.43;65.90;95031.97;5114382;28;19988;-74
2022/04/23 01:42:22;;;;;;;;;;;;;;;9.40;64.72;95023.78;5114050;28;20056;-74
2022/04/23 01:44:49;;;;;;;;;;;;;;;9.35;66.50;95037.63;5095460;28;19984;-74
2022/04/23 01:47:16;;;;;;;;;;;;;;;9.32;66.83;95032.84;5114060;28;19966;-74
2022/04/23 01:49:42;;;;;;;;;;;;;;;9.29;67.10;95031.53;5114013;28;19948;-74
2022/04/23 01:52:08;;;;;;;;;;;;;;;9.28;66.11;95029.97;5113966;28;20332;-74
2022/04/23 01:54:34;;;;;;;;;;;;;;;9.25;66.85;95027.81;5113977;28;19944;-73
2022/04/23 01:57:01;;;;;;;;;;;;;;;9.24;66.77;95030.66;5113938;28;19957;-74
2022/04/23 01:59:27;;;;;;;;;;;;;;;9.23;66.38;95035.13;5113839;28;19946;-73
2022/04/23 02:01:53;;;;;;;;;;;;;;;9.19;66.93;95031.41;5113789;28;20473;-73
2022/04/23 02:04:19;;;;;;;;;;;;;;;9.18;67.08;95042.91;5113782;28;20369;-73
2022/04/23 02:06:45;;;;;;;;;;;;;;;9.17;67.23;95033.47;5114213;28;19964;-75
2022/04/23 02:09:11;;;;;;;;;;;;;;;9.12;68.74;95043.88;5113711;28;19974;-72
2022/04/23 02:11:37;;;;;;;;;;;;;;;9.10;67.91;95036.28;5095531;28;19943;-72
2022/04/23 02:14:04;;;;;;;;;;;;;;;9.10;67.03;95023.19;5113973;28;19959;-73
2022/04/23 02:16:30;;;;;;;;;;;;;;;9.07;68.20;95035.97;5095696;28;19959;-73
2022/04/23 02:18:58;;;;;;;;;;;;;;;9.02;68.10;95035.91;5114094;28;19960;-73
2022/04/23 02:21:25;;;;;;;;;;;;;;;9.00;66.41;95032.75;5113665;28;19951;-73
2022/04/23 02:23:52;;;;;;;;;;;;;;;8.93;68.70;95036.31;5095496;28;19947;-72
2022/04/23 02:26:20;;;;;;;;;;;;;;;8.92;68.33;95028.72;5113714;28;19951;-71
2022/04/23 02:28:52;;;;;;;;;;;;;;;8.94;68.01;95029.25;5116057;28;19955;-72
2022/04/23 02:31:18;;;;;;;;;;;;;;;8.96;67.93;95035.03;5117651;28;20464;-71
2022/04/23 02:33:44;;;;;;;;;;;;;;;8.99;67.30;95036.38;5117587;28;19952;-72
2022/04/23 02:36:11;;;;;;;;;;;;;;;9.02;67.53;95033.28;5117795;28;19960;-72
2022/04/23 02:38:40;;;;;;;;;;;;;;;9.05;67.15;95040.63;5117387;28;19948;-72
2022/04/23 02:41:09;;;;;;;;;;;;;;;9.04;67.98;95047.69;5117396;28;19950;-72
2022/04/23 02:43:35;;;;;;;;;;;;;;;9.04;67.35;95045.09;5117520;28;19947;-72
2022/04/23 02:46:02;;;;;;;;;;;;;;;9.02;67.83;95048.97;5118916;28;20431;-72
2022/04/23 02:48:28;;;;;;;;;;;;;;;8.99;67.62;95045.03;5118865;28;19952;-71
2022/04/23 02:50:54;;;;;;;;;;;;;;;8.97;67.61;95033.25;5118733;28;19971;-72
2022/04/23 02:53:20;;;;;;;;;;;;;;;8.91;67.76;95037.59;5118276;28;19945;-72
2022/04/23 02:55:46;;;;;;;;;;;;;;;8.86;68.26;95030.50;5117868;28;19954;-72
2022/04/23 02:58:12;;;;;;;;;;;;;;;8.84;68.00;95035.16;5117003;28;19961;-71
2022/04/23 03:00:39;;;;;;;;;;;;;;;8.82;67.96;95036.41;5116878;28;19950;-72
2022/04/23 03:03:07;;;;;;;;;;;;;;;8.79;67.53;95034.31;5098540;28;19971;-72
2022/04/23 03:05:32;;;;;;;;;;;;;;;8.72;67.79;95027.41;5116927;28;19980;-72
2022/04/23 03:08:02;;;;;;;;;;;;;;;8.67;67.67;95026.56;5116906;28;19944;-72
2022/04/23 03:10:29;;;;;;;;;;;;;;;8.62;68.38;95034.34;5117538;28;19963;-73
2022/04/23 03:12:57;;;;;;;;;;;;;;;8.59;68.89;95030.38;5116900;28;19955;-75
2022/04/23 03:15:24;;;;;;;;;;;;;;;8.59;68.90;95026.94;5098505;28;19958;-75
2022/04/23 03:17:50;;;;;;;;;;;;;;;8.54;69.31;95025.84;5116822;28;19956;-74
2022/04/23 03:20:16;;;;;;;;;;;;;;;8.50;69.75;95023.97;5098407;28;20000;-74
2022/04/23 03:22:42;;;;;;;;;;;;;;;8.49;69.89;95019.78;5116686;28;20032;-75
2022/04/23 03:25:12;;;;;;;;;;;;;;;8.48;69.40;95019.00;5116357;28;20416;-74
2022/04/23 03:27:37;;;;;;;;;;;;;;;8.44;69.32;95017.88;5116636;28;19946;-74
2022/04/23 03:30:04;;;;;;;;;;;;;;;8.41;69.63;95028.03;5098343;28;19951;-74
2022/04/23 03:32:32;;;;;;;;;;;;;;;8.39;69.76;95032.66;5116428;28;19951;-73
2022/04/23 03:34:59;;;;;;;;;;;;;;;8.39;69.67;95035.28;5116581;28;20428;-72
2022/04/23 03:37:25;;;;;;;;;;;;;;;8.37;69.34;95030.28;5116744;28;19953;-72
2022/04/23 03:39:51;;;;;;;;;;;;;;;8.33;69.96;95021.34;5114922;28;20389;-72
2022/04/23 03:42:17;;;;;;;;;;;;;;;8.27;71.38;95014.44;5116221;28;19972;-72
2022/04/23 03:44:42;;;;;;;;;;;;;;;8.24;71.05;95012.31;5115933;28;19969;-72
2022/04/23 03:47:08;;;;;;;;;;;;;;;8.22;70.50;95014.38;5116325;28;19964;-72
2022/04/23 03:49:34;;;;;;;;;;;;;;;8.19;70.89;95013.06;5115947;28;20032;-73
2022/04/23 03:52:00;;;;;;;;;;;;;;;8.16;70.90;95012.72;5116394;28;20001;-74
2022/04/23 03:54:26;;;;;;;;;;;;;;;8.09;71.19;95011.06;5115944;28;20359;-73
2022/04/23 03:56:52;;;;;;;;;;;;;;;8.05;72.47;95017.78;5115876;28;20313;-73
2022/04/23 03:59:21;;;;;;;;;;;;;;;7.98;69.71;95003.28;5116277;28;19950;-72
2022/04/23 04:01:47;;;;;;;;;;;;;;;7.91;71.73;95008.66;5115922;28;20395;-72
2022/04/23 04:04:14;;;;;;;;;;;;;;;7.86;72.03;95009.38;5115801;28;19985;-72
2022/04/23 04:06:43;;;;;;;;;;;;;;;7.84;71.87;95013.25;5115993;28;19949;-72
2022/04/23 04:09:09;;;;;;;;;;;;;;;7.84;72.59;95018.47;5115788;28;20400;-72
2022/04/23 04:14:20;;;;;;;;;;;;;;;7.82;72.19;95010.88;5115402;28;19955;-73
2022/04/23 04:16:46;;;;;;;;;;;;;;;7.81;72.21;95017.13;5115544;28;20409;-74
2022/04/23 04:19:14;;;;;;;;;;;;;;;7.83;72.60;95019.50;5115325;28;19949;-74
2022/04/23 04:21:43;;;;;;;;;;;;;;;7.82;74.88;95015.31;5115416;28;19942;-74
2022/04/23 04:24:12;;;;;;;;;;;;;;;7.80;74.90;95025.97;5097408;28;19952;-74
2022/04/23 04:26:42;;;;;;;;;;;;;;;7.77;74.27;95020.44;5115467;28;19959;-74
2022/04/23 04:29:08;;;;;;;;;;;;;;;7.74;75.46;95016.47;5103679;28;20446;-73
2022/04/23 04:31:50;;;;;;;;;;;;;;;7.70;75.17;95015.34;5115132;28;19974;-74
2022/04/23 04:34:17;;;;;;;;;;;;;;;7.65;73.71;95005.63;5115342;28;19961;-73
2022/04/23 04:36:43;;;;;;;;;;;;;;;7.63;77.49;95012.91;5115194;28;19970;-74
2022/04/23 04:39:09;;;;;;;;;;;;;;;7.65;75.31;95004.84;5115207;28;19945;-74
2022/04/23 04:41:35;;;;;;;;;;;;;;;7.66;76.76;95014.25;5115300;28;19981;-73
2022/04/23 04:44:01;;;;;;;;;;;;;;;7.67;76.33;95018.44;5114754;28;19947;-74
2022/04/23 04:46:27;;;;;;;;;;;;;;;7.65;75.12;95004.84;5115035;28;19981;-74
2022/04/23 04:48:53;;;;;;;;;;;;;;;7.66;75.61;95019.47;5114859;28;19950;-73
2022/04/23 04:51:19;;;;;;;;;;;;;;;7.66;76.15;95015.03;5114670;28;19956;-74
2022/04/23 04:53:45;;;;;;;;;;;;;;;7.68;75.29;95010.38;5114945;28;19954;-73
2022/04/23 04:56:11;;;;;;;;;;;;;;;7.77;74.16;95007.38;5096789;28;19956;-74
2022/04/23 04:58:37;;;;;;;;;;;;;;;7.84;75.35;95011.44;5096745;28;19956;-74
2022/04/23 05:01:03;;;;;;;;;;;;;;;7.91;75.48;95019.88;5114665;28;20002;-74
2022/04/23 05:03:29;;;;;;;;;;;;;;;7.97;77.20;95020.00;5115074;28;19975;-73
2022/04/23 05:05:55;;;;;;;;;;;;;;;8.01;74.48;95021.88;5114610;28;20397;-73
2022/04/23 05:08:21;;;;;;;;;;;;;;;8.05;75.33;95028.22;5114869;28;19949;-73
2022/04/23 05:10:47;;;;;;;;;;;;;;;8.07;74.95;95034.00;5096567;28;19955;-74
2022/04/23 05:13:13;;;;;;;;;;;;;;;8.09;74.31;95041.59;5114603;28;20433;-73
2022/04/23 05:15:39;;;;;;;;;;;;;;;8.07;76.72;95036.59;5114725;28;19990;-74
2022/04/23 05:18:05;;;;;;;;;;;;;;;8.05;75.25;95032.66;5114869;28;20375;-74
2022/04/23 05:20:30;;;;;;;;;;;;;;;8.04;76.24;95038.88;5114631;28;19949;-73
2022/04/23 05:22:56;;;;;;;;;;;;;;;8.04;76.46;95037.09;5096752;28;20467;-74
2022/04/23 05:25:22;;;;;;;;;;;;;;;8.08;75.07;95038.22;5114357;28;20456;-74
2022/04/23 05:27:48;;;;;;;;;;;;;;;8.12;75.55;95052.34;5114337;28;20040;-74
2022/04/23 05:30:14;;;;;;;;;;;;;;;8.14;76.69;95045.06;5114178;28;20331;-73
2022/04/23 05:32:40;;;;;;;;;;;;;;;8.17;76.92;95046.44;5114454;28;19954;-73
2022/04/23 05:35:06;;;;;;;;;;;;;;;8.20;76.38;95053.00;5114132;28;19951;-73
2022/04/23 05:37:31;;;;;;;;;;;;;;;8.18;76.14;95053.22;5114227;28;20447;-73
2022/04/23 05:39:57;;;;;;;;;;;;;;;8.16;74.53;95050.06;5096125;28;20046;-73
2022/04/23 05:42:23;;;;;;;;;;;;;;;8.20;76.06;95051.16;5114047;28;20087;-73
2022/04/23 05:44:49;;;;;;;;;;;;;;;8.26;74.33;95049.44;5114684;28;19966;-73
2022/04/23 05:47:15;;;;;;;;;;;;;;;8.26;76.57;95054.66;5095769;28;19953;-73
2022/04/23 05:49:41;;;;;;;;;;;;;;;8.20;74.82;95061.63;5114324;28;20013;-73
2022/04/23 05:52:07;;;;;;;;;;;;;;;8.15;76.76;95064.16;5114290;28;19952;-73
2022/04/23 05:54:33;;;;;;;;;;;;;;;8.18;76.35;95062.88;5113969;28;19968;-73
2022/04/23 05:56:59;;;;;;;;;;;;;;;8.23;77.44;95058.56;5113891;28;19952;-73
2022/04/23 05:59:27;;;;;;;;;;;;;;;8.30;76.83;95064.41;5113830;28;19950;-73
2022/04/23 06:01:52;;;;;;;;;;;;;;;8.37;75.48;95063.44;5114498;28;20332;-73
2022/04/23 06:04:19;;;;;;;;;;;;;;;8.46;75.61;95064.66;5117129;28;19976;-73
2022/04/23 06:06:45;;;;;;;;;;;;;;;8.51;75.73;95078.59;5099867;28;19973;-73
2022/04/23 06:09:12;;;;;;;;;;;;;;;8.56;76.97;95072.66;5099650;28;19959;-74
2022/04/23 06:11:39;;;;;;;;;;;;;;;8.57;75.85;95082.09;5100343;28;19958;-73
2022/04/23 06:14:05;;;;;;;;;;;;;;;8.62;76.38;95084.75;5117643;28;19954;-74
2022/04/23 06:16:31;;;;;;;;;;;;;;;8.66;74.96;95082.47;5117852;28;19952;-73
2022/04/23 06:18:57;;;;;;;;;;;;;;;8.66;75.60;95077.25;5117707;28;19952;-74
2022/04/23 06:21:22;;;;;;;;;;;;;;;8.72;75.31;95087.53;5117937;28;19963;-73
2022/04/23 06:23:48;;;;;;;;;;;;;;;8.81;76.77;95095.75;5117796;28;19968;-73
2022/04/23 06:26:14;;;;;;;;;;;;;;;8.87;74.77;95088.78;5117610;28;20012;-74
2022/04/23 06:28:40;;;;;;;;;;;;;;;8.93;75.12;95088.59;5118014;28;19995;-73
2022/04/23 06:31:06;;;;;;;;;;;;;;;9.04;74.23;95092.16;5117513;28;20461;-73
2022/04/23 06:33:32;;;;;;;;;;;;;;;9.13;74.68;95095.94;5118344;28;19955;-74
2022/04/23 06:35:58;;;;;;;;;;;;;;;9.20;74.20;95089.72;5098420;28;19966;-74
2022/04/23 06:38:53;;;;;;;;;;;;;;;9.24;74.05;95098.66;5105544;28;19949;-73
2022/04/23 06:41:19;;;;;;;;;;;;;;;9.25;74.20;95102.88;5117039;28;20331;-74
2022/04/23 06:43:45;;;;;;;;;;;;;;;9.30;73.64;95100.31;5117556;28;20002;-73
2022/04/23 06:46:11;;;;;;;;;;;;;;;9.36;75.49;95101.97;5117325;28;19972;-73
2022/04/23 06:48:37;;;;;;;;;;;;;;;9.39;72.30;95091.03;5117379;28;20366;-73
2022/04/23 06:51:03;;;;;;;;;;;;;;;9.37;73.86;95105.41;5117310;28;20324;-73
2022/04/23 06:53:28;;;;;;;;;;;;;;;9.30;73.81;95102.94;5117201;28;20010;-73
2022/04/23 06:55:54;;;;;;;;;;;;;;;9.29;73.76;95111.84;5117174;28;20376;-73
2022/04/23 06:58:22;;;;;;;;;;;;;;;9.37;73.87;95100.94;5116812;28;20319;-73
2022/04/23 07:00:48;;;;;;;;;;;;;;;9.47;73.38;95100.25;5117121;28;19966;-73
2022/04/23 07:03:14;;;;;;;;;;;;;;;9.52;71.88;95098.50;5116938;28;19973;-75
2022/04/23 07:05:40;;;;;;;;;;;;;;;9.54;73.62;95109.53;5116985;28;19968;-73
2022/04/23 07:08:06;;;;;;;;;;;;;;;9.54;72.83;95106.91;5098751;28;19955;-74
2022/04/23 07:10:32;;;;;;;;;;;;;;;9.50;73.42;95116.28;5116879;28;19962;-74
2022/04/23 07:12:59;;;;;;;;;;;;;;;9.48;73.57;95113.13;5116794;28;19948;-74
2022/04/23 07:15:25;;;;;;;;;;;;;;;9.49;72.77;95104.25;5116751;28;19956;-74
2022/04/23 07:17:51;;;;;;;;;;;;;;;9.52;73.10;95106.34;5116754;28;19955;-74
2022/04/23 07:20:18;;;;;;;;;;;;;;;9.52;73.78;95116.03;5116455;28;19943;-74
2022/04/23 07:24:03;;;;;;;;;;;;;;;9.55;72.73;95105.06;5116432;28;20337;-74
2022/04/23 07:25:31;;;;;;;;;;;;;;;9.54;71.60;95098.28;5116491;28;19965;-75
2022/04/23 07:27:58;;;;;;;;;;;;;;;9.53;73.15;95101.91;5116653;28;19956;-74
2022/04/23 07:30:27;;;;;;;;;;;;;;;9.55;72.25;95103.28;5116559;28;19953;-73
2022/04/23 07:32:54;;;;;;;;;;;;;;;9.59;72.73;95116.63;5116622;28;19962;-74
2022/04/23 07:38:11;;;;;;;;;;;;;;;9.62;72.75;95112.75;5116438;28;19960;-74
2022/04/23 07:40:40;;;;;;;;;;;;;;;9.60;72.30;95107.78;5116324;28;19958;-74
2022/04/23 07:43:10;;;;;;;;;;;;;;;9.64;71.69;95108.88;5116214;28;19954;-74
2022/04/23 07:45:37;;;;;;;;;;;;;;;9.63;71.46;95111.72;5098092;28;20030;-74
2022/04/23 07:48:04;;;;;;;;;;;;;;;9.67;71.92;95110.19;5116522;28;19960;-74
2022/04/23 07:50:31;;;;;;;;;;;;;;;9.72;71.44;95107.63;5115931;28;19951;-74
2022/04/23 07:52:57;;;;;;;;;;;;;;;9.77;70.93;95109.53;5097874;28;20326;-74
2022/04/23 07:55:23;;;;;;;;;;;;;;;9.75;70.20;95102.69;5116063;28;20007;-74
2022/04/23 07:57:49;;;;;;;;;;;;;;;9.81;71.04;95108.00;5115895;28;19971;-74
2022/04/23 08:00:15;;;;;;;;;;;;;;;9.88;70.60;95103.34;5098377;28;19956;-74
2022/04/23 08:02:41;;;;;;;;;;;;;;;9.83;70.26;95106.72;5115668;28;19955;-75
2022/04/23 08:05:09;;;;;;;;;;;;;;;9.81;70.85;95111.41;5115685;28;19953;-73
2022/04/23 08:07:35;;;;;;;;;;;;;;;9.78;70.56;95111.88;5115732;28;19953;-74
2022/04/23 08:10:02;;;;;;;;;;;;;;;9.82;70.57;95104.34;5115525;28;19954;-75
2022/04/23 08:12:28;;;;;;;;;;;;;;;9.90;70.46;95104.69;5115493;28;19948;-74
2022/04/23 08:14:54;;;;;;;;;;;;;;;10.05;70.92;95114.53;5115318;28;19960;-75
2022/04/23 08:17:20;;;;;;;;;;;;;;;10.16;69.87;95097.88;5115810;28;20044;-74
2022/04/23 08:19:46;;;;;;;;;;;;;;;10.25;69.41;95100.84;5097454;28;20390;-74
2022/04/23 08:22:12;;;;;;;;;;;;;;;10.35;69.25;95094.91;5115709;28;20386;-74
2022/04/23 08:24:39;;;;;;;;;;;;;;;10.44;68.36;95095.28;5115384;28;19954;-75
2022/04/23 08:27:04;;;;;;;;;;;;;;;10.41;68.20;95096.53;5114612;28;19967;-75
2022/04/23 08:32:15;;;;;;;;;;;;;;;10.53;68.70;95085.91;5115410;28;20317;-74
2022/04/23 08:34:40;;;;;;;;;;;;;;;10.66;68.33;95079.44;5114995;28;19987;-74
2022/04/23 08:37:06;;;;;;;;;;;;;;;10.84;68.28;95083.50;5096768;28;19943;-74
2022/04/23 08:39:32;;;;;;;;;;;;;;;10.99;67.12;95080.19;5115499;28;20040;-74
2022/04/23 08:41:59;;;;;;;;;;;;;;;11.08;66.92;95070.78;5114974;28;20024;-74
2022/04/23 08:44:24;;;;;;;;;;;;;;;11.20;66.74;95076.63;5114834;28;19955;-74
2022/04/23 08:46:53;;;;;;;;;;;;;;;11.42;66.13;95058.06;5114854;28;19977;-74
2022/04/23 08:49:19;;;;;;;;;;;;;;;11.71;66.46;95065.50;5114791;28;19955;-74
2022/04/23 08:51:53;;;;;;;;;;;;;;;11.88;65.18;95057.41;5114631;28;20344;-75
2022/04/23 08:54:19;;;;;;;;;;;;;;;12.00;64.69;95057.22;5098145;28;20341;-75
2022/04/23 08:56:46;;;;;;;;;;;;;;;11.93;63.62;95053.00;5115944;28;19961;-74
2022/04/23 08:59:13;;;;;;;;;;;;;;;11.93;62.42;95039.84;5077237;28;19960;-74
2022/04/23 09:01:39;;;;;;;;;;;;;;;11.85;63.33;95044.81;5114607;28;19949;-74
2022/04/23 09:04:06;;;;;;;;;;;;;;;11.94;63.78;95038.00;5114629;28;19966;-74
2022/04/23 09:06:33;;;;;;;;;;;;;;;11.95;63.87;95043.00;5114488;28;19964;-75
2022/04/23 09:09:06;;;;;;;;;;;;;;;11.94;63.56;95024.88;5114659;28;19952;-75
2022/04/23 09:11:34;;;;;;;;;;;;;;;11.94;64.14;95043.28;5114518;28;19969;-75
2022/04/23 09:14:00;;;;;;;;;;;;;;;12.07;64.31;95055.09;5115832;28;20314;-75
2022/04/23 09:24:46;;;;;;;;;;;;;;;12.42;62.32;95037.78;5114865;28;19951;-75
2022/04/23 09:27:12;;;;;;;;;;;;;;;12.39;61.08;95020.72;5114538;28;19955;-75
2022/04/23 09:29:38;;;;;;;;;;;;;;;12.27;60.68;95013.06;5114826;28;19959;-74
2022/04/23 09:32:17;;;;;;;;;;;;;;;12.41;62.65;95038.81;5115230;28;19955;-75
2022/04/23 09:34:42;;;;;;;;;;;;;;;12.65;61.43;95016.19;5115075;28;19955;-74
2022/04/23 09:37:08;;;;;;;;;;;;;;;12.82;59.65;95002.75;5113335;28;20396;-75
2022/04/23 09:39:35;;;;;;;;;;;;;;;12.67;59.07;95000.16;5114783;28;20278;-75
2022/04/23 09:42:12;;;;;;;;;;;;;;;12.72;61.71;95027.22;5114937;28;19958;-75
2022/04/23 09:44:38;;;;;;;;;;;;;;;12.77;61.38;95023.81;5114729;28;20373;-75
2022/04/23 09:47:04;;;;;;;;;;;;;;;12.77;61.13;95016.69;5114380;28;19984;-75
2022/04/23 09:49:30;;;;;;;;;;;;;;;12.79;60.25;95011.19;5114495;28;20315;-75
2022/04/23 09:52:02;;;;;;;;;;;;;;;12.83;60.89;95014.84;5113949;28;19975;-75
2022/04/23 09:54:29;;;;;;;;;;;;;;;12.91;60.13;95016.91;5114110;28;19954;-75
2022/04/23 09:56:56;;;;;;;;;;;;;;;12.70;58.35;94999.63;5114541;28;19971;-75
2022/04/23 09:59:23;;;;;;;;;;;;;;;12.63;60.54;95020.16;5115082;28;19952;-75
2022/04/23 10:01:49;;;;;;;;;;;;;;;12.61;60.04;95019.63;5114346;28;19948;-75
2022/04/23 10:04:20;;;;;;;;;;;;;;;12.68;60.18;95012.25;5113948;28;19978;-75
2022/04/23 10:06:48;;;;;;;;;;;;;;;12.70;60.37;95020.66;5113608;28;20420;-75
2022/04/23 10:09:17;;;;;;;;;;;;;;;12.83;60.86;95016.69;5113697;28;19957;-76
2022/04/23 10:11:43;;;;;;;;;;;;;;;13.05;61.20;95013.75;5114078;28;20400;-75
2022/04/23 10:14:11;;;;;;;;;;;;;;;13.17;60.04;95009.75;5113994;28;19956;-75
2022/04/23 10:16:38;;;;;;;;;;;;;;;13.12;59.10;94998.44;5113954;28;19953;-75
2022/04/23 10:19:04;;;;;;;;;;;;;;;12.99;59.11;95003.22;5113906;28;19967;-75
2022/04/23 10:21:42;;;;;;;;;;;;;;;12.96;59.11;95011.66;5096293;28;19979;-75
2022/04/23 10:24:14;;;;;;;;;;;;;;;12.92;60.05;95023.00;5115105;28;20308;-75
2022/04/23 10:26:43;;;;;;;;;;;;;;;12.71;58.70;95009.88;5113790;28;19970;-75
2022/04/23 10:29:10;;;;;;;;;;;;;;;12.65;60.08;95031.19;5117968;28;19945;-75
2022/04/23 10:31:37;;;;;;;;;;;;;;;12.63;60.08;95026.19;5120021;28;19943;-75
2022/04/23 10:34:03;;;;;;;;;;;;;;;12.62;59.50;95026.44;5116506;28;19958;-75
2022/04/23 10:36:29;;;;;;;;;;;;;;;12.62;59.98;95026.44;5114791;28;19947;-75
2022/04/23 10:39:14;;;;;;;;;;;;;;;12.41;60.00;95025.69;5114338;28;20392;-75
2022/04/23 10:41:39;;;;;;;;;;;;;;;12.30;60.40;95028.31;5114047;28;19951;-75
2022/04/23 10:44:05;;;;;;;;;;;;;;;12.31;60.67;95029.91;5113823;28;19951;-76
2022/04/23 10:46:37;;;;;;;;;;;;;;;12.15;60.24;95023.06;5095555;28;19965;-75
2022/04/23 10:49:20;;;;;;;;;;;;;;;12.07;61.29;95045.38;5106081;28;19955;-75
2022/04/23 10:51:56;;;;;;;;;;;;;;;11.99;60.38;95038.03;5117442;28;19947;-75
2022/04/23 10:54:40;;;;;;;;;;;;;;;11.89;60.97;95038.81;5101324;28;19942;-75
2022/04/23 10:57:10;;;;;;;;;;;;;;;11.93;61.32;95042.50;5098823;28;20321;-74
2022/04/23 10:59:40;;;;;;;;;;;;;;;12.02;61.26;95031.47;5117638;28;19960;-75
2022/04/23 11:02:13;;;;;;;;;;;;;;;12.12;61.47;95031.47;5117179;28;19949;-75
2022/04/23 11:12:14;;;;;;;;;;;;;;;12.31;61.34;95029.13;5116663;28;19992;-75
2022/04/23 11:13:32;;;;;;;;;;;;;;;12.58;60.03;95002.53;5097993;28;20384;-75
2022/04/23 11:16:12;;;;;;;;;;;;;;;12.63;59.54;94997.25;5117399;28;19955;-74
2022/04/23 11:18:39;;;;;;;;;;;;;;;12.90;60.35;95002.19;5120069;28;19940;-75
2022/04/23 11:21:07;;;;;;;;;;;;;;;13.11;59.43;95002.13;5119935;28;19949;-75
2022/04/23 11:23:33;;;;;;;;;;;;;;;12.83;57.09;94964.06;5116854;28;20299;-75
2022/04/23 11:25:58;;;;;;;;;;;;;;;12.62;58.51;94976.47;5116581;28;20438;-75
2022/04/23 11:28:24;;;;;;;;;;;;;;;12.54;58.99;94975.19;5116835;28;19950;-75
2022/04/23 11:30:52;;;;;;;;;;;;;;;12.58;60.00;94997.28;5116819;28;19961;-75
2022/04/23 11:33:17;;;;;;;;;;;;;;;12.72;60.61;94993.03;5116708;28;20385;-75
2022/04/23 11:35:43;;;;;;;;;;;;;;;12.84;58.59;94973.53;5116489;28;19960;-75
2022/04/23 11:38:19;;;;;;;;;;;;;;;12.84;59.29;94970.91;5116301;28;19948;-76
2022/04/23 11:40:45;;;;;;;;;;;;;;;12.83;57.92;94962.25;5117901;28;20307;-74
2022/04/23 11:43:13;;;;;;;;;;;;;;;12.90;59.20;94977.75;5117517;28;19948;-75
2022/04/23 11:45:47;;;;;;;;;;;;;;;13.08;58.90;94969.25;5098160;28;19962;-75
2022/04/23 11:48:13;;;;;;;;;;;;;;;13.37;59.51;94969.38;5116461;28;19950;-75
2022/04/23 11:50:39;;;;;;;;;;;;;;;13.67;58.31;94956.31;5116026;28;19958;-75
2022/04/23 11:53:05;;;;;;;;;;;;;;;13.86;56.20;94930.91;5116159;28;19991;-75
2022/04/23 11:55:31;;;;;;;;;;;;;;;14.00;56.49;94928.41;5116081;28;19966;-75
2022/04/23 11:57:59;;;;;;;;;;;;;;;14.15;57.27;94936.22;5097861;28;19998;-75
2022/04/23 12:00:48;;;;;;;;;;;;;;;14.44;56.25;94924.84;5045809;28;19948;-75
2022/04/23 12:03:24;;;;;;;;;;;;;;;14.55;55.57;94918.44;5033068;28;20037;-75
2022/04/23 12:05:56;;;;;;;;;;;;;;;14.65;56.19;94927.31;5083549;28;19964;-74
2022/04/23 12:08:22;;;;;;;;;;;;;;;14.70;54.42;94901.66;5115882;28;20398;-75
2022/04/23 12:10:48;;;;;;;;;;;;;;;14.34;53.17;94891.47;5097551;28;19997;-75
2022/04/23 12:13:14;;;;;;;;;;;;;;;14.09;54.00;94904.88;5116063;28;19951;-75
2022/04/23 12:15:46;;;;;;;;;;;;;;;13.80;55.70;94921.47;5115651;28;19953;-75
2022/04/23 12:18:15;;;;;;;;;;;;;;;13.54;54.84;94920.84;5115691;28;19967;-75
2022/04/23 12:20:42;;;;;;;;;;;;;;;13.45;56.24;94927.75;5115492;28;20281;-75
2022/04/23 12:23:08;;;;;;;;;;;;;;;13.48;56.55;94940.38;5115765;28;20316;-74
2022/04/23 12:25:35;;;;;;;;;;;;;;;13.44;56.59;94920.91;5115527;28;19966;-74
2022/04/23 12:40:43;;;;;;;;;;;;;;;13.38;56.51;94925.44;5115373;28;20449;-74
2022/04/23 12:41:55;;;;;;;;;;;;;;;12.90;61.38;94977.75;5073500;28;19956;-75
2022/04/23 12:44:22;;;;;;;;;;;;;;;12.93;60.86;94992.97;5115510;28;19954;-74
2022/04/23 12:46:51;;;;;;;;;;;;;;;12.82;60.79;95001.97;5114932;28;19960;-75
2022/04/23 12:49:17;;;;;;;;;;;;;;;12.71;60.94;94999.34;5115106;28;19958;-75
2022/04/23 12:51:53;;;;;;;;;;;;;;;12.54;60.35;94996.25;5114741;28;19945;-74
2022/04/23 12:54:21;;;;;;;;;;;;;;;12.45;61.99;95010.94;5114805;28;19950;-75
2022/04/23 12:56:48;;;;;;;;;;;;;;;12.38;61.30;95003.34;5114878;28;19957;-74
2022/04/23 12:59:14;;;;;;;;;;;;;;;12.29;61.13;95005.72;5114573;28;19950;-75
2022/04/23 13:01:39;;;;;;;;;;;;;;;12.33;62.00;95005.97;5114894;28;20364;-75
2022/04/23 13:04:08;;;;;;;;;;;;;;;12.46;64.09;95029.09;5114449;28;20021;-75
2022/04/23 13:09:18;;;;;;;;;;;;;;;12.57;61.11;94978.06;5114783;28;20308;-75
2022/04/23 13:11:44;;;;;;;;;;;;;;;12.61;60.56;94985.44;5114354;28;19958;-75
2022/04/23 13:14:10;;;;;;;;;;;;;;;12.57;60.82;94980.69;5114876;28;20304;-74
2022/04/23 13:16:38;;;;;;;;;;;;;;;12.65;61.74;94989.13;5096229;28;19972;-74
2022/04/23 13:19:04;;;;;;;;;;;;;;;12.63;59.87;94968.34;5114344;28;20270;-74
2022/04/23 13:21:31;;;;;;;;;;;;;;;12.70;60.28;94968.03;5114556;28;19951;-75
2022/04/23 13:23:57;;;;;;;;;;;;;;;12.70;59.58;94944.38;5079249;28;19951;-75
2022/04/23 13:26:29;;;;;;;;;;;;;;;12.75;59.95;94953.06;5114326;28;19958;-74
2022/04/23 13:28:56;;;;;;;;;;;;;;;12.80;60.96;94960.91;5114331;28;20156;-75
2022/04/23 13:31:22;;;;;;;;;;;;;;;12.85;59.04;94941.72;5095993;28;19956;-75